Time;durP1;ratioP1;P1;durP2;ratioP2;P2;SDS_P1;SDS_P2;PMS_P1;PMS_P2;Temp;Humidity;BMP_temperature;BMP_pressure;BME280_temperature;BME280_humidity;BME280_pressure;Samples;Min_cycle;Max_cycle;Signal;HPM_P1;HPM_P2
2022/01/05 00:01:59;;;;;;;;;0.00;0.00;;;;;6.76;63.75;100479.66;5069083;28;45465;-65
2022/01/05 00:04:24;;;;;;;;;3.00;1.00;;;;;6.70;63.25;100496.50;5063994;27;46280;-65
2022/01/05 00:06:50;;;;;;;;;6.00;2.50;;;;;6.64;63.40;100496.81;5067232;27;46416;-64
2022/01/05 00:09:15;;;;;;;;;1.00;1.00;;;;;6.60;63.51;100507.47;5069429;27;45552;-64
2022/01/05 00:11:41;;;;;;;;;4.50;2.00;;;;;6.54;62.88;100492.06;5069411;28;45444;-66
2022/01/05 00:14:07;;;;;;;;;6.00;3.00;;;;;6.51;63.86;100505.28;5068421;28;45445;-64
2022/01/05 00:16:32;;;;;;;;;1.75;1.00;;;;;6.49;63.03;100507.13;5068645;28;45413;-65
2022/01/05 00:18:58;;;;;;;;;1.00;1.00;;;;;6.44;63.33;100502.94;5067134;28;45531;-68
2022/01/05 00:21:24;;;;;;;;;0.75;0.75;;;;;6.40;63.05;100503.19;5069088;28;45349;-67
2022/01/05 00:23:49;;;;;;;;;2.00;1.25;;;;;6.41;62.57;100502.25;5067696;28;45919;-65
2022/01/05 00:26:15;;;;;;;;;4.25;0.75;;;;;6.36;62.60;100499.84;5071817;27;45437;-63
2022/01/05 00:28:40;;;;;;;;;1.00;1.00;;;;;6.36;63.01;100509.44;5070397;27;45513;-65
2022/01/05 00:31:06;;;;;;;;;1.25;1.00;;;;;6.36;62.96;100512.06;5071190;28;45519;-66
2022/01/05 00:33:31;;;;;;;;;2.75;0.00;;;;;6.31;62.39;100507.03;5068544;27;45490;-71
2022/01/05 00:35:57;;;;;;;;;1.75;1.50;;;;;6.31;62.38;100508.81;5071983;27;45606;-69
2022/01/05 00:38:22;;;;;;;;;1.50;1.50;;;;;6.28;62.55;100511.56;5070490;28;45898;-66
2022/01/05 00:40:48;;;;;;;;;2.00;1.75;;;;;6.24;62.79;100512.59;5067794;27;45837;-66
2022/01/05 00:43:13;;;;;;;;;6.25;1.50;;;;;6.21;62.86;100521.44;5070392;27;46179;-64
2022/01/05 00:45:39;;;;;;;;;3.00;1.25;;;;;6.21;62.91;100516.22;5070599;27;45906;-64
2022/01/05 00:48:04;;;;;;;;;2.75;2.00;;;;;6.18;61.95;100525.97;5067843;27;45465;-65
2022/01/05 00:50:30;;;;;;;;;2.00;1.00;;;;;6.17;62.05;100532.13;5071463;27;45418;-63
2022/01/05 00:53:00;;;;;;;;;2.25;2.00;;;;;6.15;62.61;100533.03;5075116;27;46448;-62
2022/01/05 00:55:27;;;;;;;;;1.00;1.00;;;;;6.17;62.10;100534.75;5073225;28;45385;-64
2022/01/05 00:57:52;;;;;;;;;2.75;2.00;;;;;6.14;62.79;100533.09;5067638;27;45476;-61
2022/01/05 01:00:18;;;;;;;;;2.25;1.00;;;;;6.08;62.22;100541.19;5068944;27;45547;-67
2022/01/05 01:02:44;;;;;;;;;2.00;1.00;;;;;6.07;62.18;100542.97;5070754;28;45449;-62
2022/01/05 01:05:09;;;;;;;;;6.25;1.00;;;;;6.04;62.67;100545.72;5071010;27;45439;-63
2022/01/05 01:07:35;;;;;;;;;1.25;1.00;;;;;6.05;62.57;100550.03;5073604;27;45735;-66
2022/01/05 01:10:00;;;;;;;;;4.75;2.00;;;;;6.06;63.23;100548.28;5070063;28;45865;-64
2022/01/05 01:12:26;;;;;;;;;1.00;1.00;;;;;6.07;62.71;100555.19;5070571;27;45826;-63
2022/01/05 01:14:51;;;;;;;;;10.00;2.50;;;;;6.09;62.25;100553.38;5070739;27;45416;-62
2022/01/05 01:17:17;;;;;;;;;2.00;1.75;;;;;6.10;62.90;100562.94;5071887;27;45375;-63
2022/01/05 01:19:42;;;;;;;;;2.50;2.00;;;;;6.10;62.42;100566.38;5069914;28;45570;-63
2022/01/05 01:22:08;;;;;;;;;3.00;1.00;;;;;6.10;62.47;100566.38;5069457;28;45418;-63
2022/01/05 01:24:33;;;;;;;;;4.00;2.00;;;;;6.09;62.79;100575.16;5072470;27;45323;-64
2022/01/05 01:26:59;;;;;;;;;1.00;1.00;;;;;6.08;62.57;100575.19;5071460;27;45336;-64
2022/01/05 01:29:24;;;;;;;;;4.00;1.00;;;;;6.08;62.52;100583.03;5071551;28;46384;-63
2022/01/05 01:31:50;;;;;;;;;3.00;1.00;;;;;6.08;62.74;100586.53;5069090;27;46415;-64
2022/01/05 01:34:16;;;;;;;;;1.75;1.75;;;;;6.06;61.93;100582.25;5070207;27;45700;-64
2022/01/05 01:36:42;;;;;;;;;4.50;2.75;;;;;6.04;62.34;100582.34;5068734;27;45459;-62
2022/01/05 01:39:08;;;;;;;;;3.50;0.50;;;;;6.02;62.40;100586.78;5076970;27;45546;-64
2022/01/05 01:41:33;;;;;;;;;2.00;1.50;;;;;6.00;63.09;100598.22;5068360;28;45492;-64
2022/01/05 01:43:59;;;;;;;;;2.00;1.00;;;;;6.00;62.79;100600.81;5067520;28;45712;-61
2022/01/05 01:46:24;;;;;;;;;1.25;1.25;;;;;5.99;62.29;100613.06;5063973;28;45569;-62
2022/01/05 01:48:50;;;;;;;;;5.75;2.00;;;;;5.98;62.31;100618.34;5068461;28;45596;-63
2022/01/05 01:51:17;;;;;;;;;5.75;1.50;;;;;5.95;63.15;100621.94;5067987;28;45515;-63
2022/01/05 01:53:43;;;;;;;;;5.25;1.00;;;;;5.93;62.98;100620.31;5075340;27;45667;-67
2022/01/05 01:56:11;;;;;;;;;7.00;2.00;;;;;5.93;62.70;100628.16;5070833;27;45489;-64
2022/01/05 01:58:37;;;;;;;;;3.50;2.00;;;;;5.91;63.26;100629.97;5072703;27;45524;-63
2022/01/05 02:01:03;;;;;;;;;3.50;1.00;;;;;5.91;63.29;100641.28;5068430;28;45676;-65
2022/01/05 02:03:29;;;;;;;;;2.00;1.00;;;;;5.91;63.68;100635.22;5070735;28;45390;-63
2022/01/05 02:05:55;;;;;;;;;2.00;0.75;;;;;5.92;63.31;100636.91;5073301;27;45463;-64
2022/01/05 02:08:20;;;;;;;;;1.75;1.00;;;;;5.92;63.19;100652.59;5067084;28;45682;-65
2022/01/05 02:10:49;;;;;;;;;3.00;1.00;;;;;5.92;63.62;100647.34;5068173;28;45541;-64
2022/01/05 02:13:15;;;;;;;;;0.75;0.75;;;;;5.91;63.04;100653.50;5066758;28;45411;-63
2022/01/05 02:15:43;;;;;;;;;4.75;1.75;;;;;5.92;63.00;100655.19;5069655;28;46606;-63
2022/01/05 02:18:57;;;;;;;;;6.00;0.75;;;;;5.93;63.03;100664.78;5067138;28;45650;-62
2022/01/05 02:21:03;;;;;;;;;5.25;1.00;;;;;5.93;62.63;100670.00;5069377;28;45946;-64
2022/01/05 02:23:28;;;;;;;;;0.00;0.00;;;;;5.90;63.13;100670.91;5067059;28;45538;-63
2022/01/05 02:25:54;;;;;;;;;1.25;1.25;;;;;5.89;62.68;100671.84;5066693;28;45763;-64
2022/01/05 02:28:20;;;;;;;;;0.75;0.00;;;;;5.87;62.58;100673.69;5067919;28;45489;-64
2022/01/05 02:30:45;;;;;;;;;2.25;0.25;;;;;5.86;62.72;100672.81;5069028;28;46082;-63
2022/01/05 02:33:11;;;;;;;;;1.75;0.50;;;;;5.84;62.44;100668.56;5067676;28;45420;-64
2022/01/05 02:35:36;;;;;;;;;6.25;1.75;;;;;5.82;62.57;100660.78;5067646;28;45347;-63
2022/01/05 02:38:02;;;;;;;;;5.00;0.50;;;;;5.82;63.00;100663.41;5067073;28;45406;-64
2022/01/05 02:40:28;;;;;;;;;5.00;1.50;;;;;5.80;62.96;100667.84;5067748;28;45644;-64
2022/01/05 02:42:56;;;;;;;;;0.00;0.00;;;;;5.77;61.90;100661.91;5066841;28;45402;-64
2022/01/05 02:45:22;;;;;;;;;2.75;1.25;;;;;5.74;62.84;100668.09;5069503;28;45533;-64
2022/01/05 02:47:48;;;;;;;;;2.50;0.75;;;;;5.73;62.78;100662.91;5068921;28;45764;-64
2022/01/05 02:50:14;;;;;;;;;1.75;1.00;;;;;5.69;62.57;100672.66;5070115;28;45508;-64
2022/01/05 02:52:40;;;;;;;;;1.50;0.50;;;;;5.68;62.68;100668.31;5069926;28;45504;-64
2022/01/05 02:55:07;;;;;;;;;1.75;1.00;;;;;5.66;62.45;100675.38;5070665;28;45527;-64
2022/01/05 02:57:33;;;;;;;;;2.25;1.00;;;;;5.66;62.34;100680.59;5067713;28;45363;-64
2022/01/05 02:59:59;;;;;;;;;5.50;2.50;;;;;5.64;62.59;100679.81;5066846;28;45478;-64
2022/01/05 03:02:25;;;;;;;;;2.25;1.00;;;;;5.65;63.12;100683.28;5067135;28;45406;-63
2022/01/05 03:04:51;;;;;;;;;2.00;1.00;;;;;5.65;62.07;100680.66;5069945;28;45369;-63
2022/01/05 03:07:16;;;;;;;;;4.75;1.00;;;;;5.63;62.72;100682.50;5070982;28;45483;-64
2022/01/05 03:09:43;;;;;;;;;3.25;1.00;;;;;5.60;62.58;100693.91;5068384;28;47086;-64
2022/01/05 03:12:10;;;;;;;;;1.50;1.50;;;;;5.57;62.30;100700.13;5069509;28;45539;-64
2022/01/05 03:14:36;;;;;;;;;5.75;1.25;;;;;5.56;62.43;100697.56;5067712;28;45468;-63
2022/01/05 03:17:02;;;;;;;;;1.00;1.00;;;;;5.55;62.80;100703.72;5066703;28;45323;-64
2022/01/05 03:19:27;;;;;;;;;6.00;1.25;;;;;5.52;62.25;100709.03;5067110;28;46308;-63
2022/01/05 03:21:53;;;;;;;;;1.75;1.00;;;;;5.52;62.35;100703.81;5065787;28;45358;-64
2022/01/05 03:24:18;;;;;;;;;1.75;1.00;;;;;5.52;62.60;100709.03;5068837;28;45552;-64
2022/01/05 03:26:44;;;;;;;;;2.00;0.50;;;;;5.51;63.02;100705.56;5068592;28;45535;-64
2022/01/05 03:29:09;;;;;;;;;2.00;0.50;;;;;5.46;63.37;100704.91;5069383;28;46613;-64
2022/01/05 03:31:35;;;;;;;;;3.25;1.00;;;;;5.48;62.90;100715.31;5070480;28;45418;-64
2022/01/05 03:34:01;;;;;;;;;1.00;1.00;;;;;5.48;63.27;100728.38;5068235;28;45406;-64
2022/01/05 03:36:26;;;;;;;;;0.75;0.75;;;;;5.47;62.56;100737.13;5068695;28;45652;-64
2022/01/05 03:38:52;;;;;;;;;2.00;0.75;;;;;5.47;62.65;100726.66;5067035;28;45548;-64
2022/01/05 03:41:17;;;;;;;;;5.00;1.00;;;;;5.46;63.24;100741.50;5065456;28;45465;-64
2022/01/05 03:43:43;;;;;;;;;6.25;1.00;;;;;5.47;62.97;100739.72;5067771;28;45510;-64
2022/01/05 03:46:09;;;;;;;;;1.75;1.00;;;;;5.48;63.49;100750.13;5066707;28;45512;-64
2022/01/05 03:48:34;;;;;;;;;5.00;1.50;;;;;5.47;63.16;100751.03;5068426;28;46047;-64
2022/01/05 03:50:59;;;;;;;;;1.00;1.00;;;;;5.46;62.75;100756.31;5069618;28;45524;-64
2022/01/05 03:53:25;;;;;;;;;3.25;1.00;;;;;5.45;62.35;100762.44;5067909;28;45444;-64
2022/01/05 03:55:51;;;;;;;;;4.50;1.00;;;;;5.43;63.06;100765.09;5072742;28;45563;-64
2022/01/05 03:58:17;;;;;;;;;6.00;3.00;;;;;5.43;62.38;100767.72;5067656;28;45893;-64
2022/01/05 04:00:49;;;;;;;;;2.00;1.00;;;;;5.42;62.92;100767.78;5065836;28;45420;-64
2022/01/05 04:03:15;;;;;;;;;5.00;2.00;;;;;5.42;62.38;100768.63;5070055;28;45424;-64
2022/01/05 04:05:41;;;;;;;;;1.00;1.00;;;;;5.41;62.92;100768.69;5072295;28;45476;-64
2022/01/05 04:08:06;;;;;;;;;4.75;1.00;;;;;5.40;63.32;100770.44;5071993;28;45704;-64
2022/01/05 04:10:32;;;;;;;;;4.00;1.00;;;;;5.41;62.72;100761.69;5073021;28;45392;-64
2022/01/05 04:12:58;;;;;;;;;1.00;1.00;;;;;5.40;62.15;100770.44;5070740;28;45481;-64
2022/01/05 04:15:24;;;;;;;;;1.00;0.25;;;;;5.39;62.36;100775.75;5069989;28;45937;-64
2022/01/05 04:17:49;;;;;;;;;2.00;1.00;;;;;5.39;62.99;100773.97;5072111;28;46435;-64
2022/01/05 04:20:16;;;;;;;;;1.00;1.00;;;;;5.35;62.86;100767.16;5072934;28;45421;-64
2022/01/05 04:22:42;;;;;;;;;1.00;0.00;;;;;5.35;63.42;100774.97;5070691;28;45407;-64
2022/01/05 04:25:08;;;;;;;;;4.25;1.00;;;;;5.36;63.08;100776.69;5070890;28;45565;-64
2022/01/05 04:27:34;;;;;;;;;2.75;0.50;;;;;5.34;62.74;100775.91;5069211;28;45561;-64
2022/01/05 04:30:00;;;;;;;;;2.25;0.25;;;;;5.34;63.80;100778.50;5069399;28;45504;-64
2022/01/05 04:32:25;;;;;;;;;7.00;0.25;;;;;5.33;62.88;100779.41;5070972;28;45526;-64
2022/01/05 04:34:51;;;;;;;;;2.00;0.00;;;;;5.32;62.68;100786.41;5070284;28;45783;-64
2022/01/05 04:37:16;;;;;;;;;5.00;0.50;;;;;5.32;62.84;100785.56;5071734;28;45579;-64
2022/01/05 04:39:42;;;;;;;;;1.50;1.00;;;;;5.33;63.45;100782.88;5072765;28;45607;-64
2022/01/05 04:42:08;;;;;;;;;4.00;1.00;;;;;5.32;63.09;100786.41;5071958;28;45405;-64
2022/01/05 04:44:33;;;;;;;;;0.75;0.75;;;;;5.33;63.26;100787.25;5070845;28;45380;-64
2022/01/05 04:46:59;;;;;;;;;3.75;1.00;;;;;5.32;62.86;100796.84;5070041;28;45783;-64
2022/01/05 04:49:25;;;;;;;;;1.00;0.25;;;;;5.30;63.17;100806.50;5069879;28;45374;-64
2022/01/05 04:51:51;;;;;;;;;2.50;0.25;;;;;5.31;63.32;100805.59;5069336;28;45324;-64
2022/01/05 04:54:17;;;;;;;;;3.00;1.00;;;;;5.32;63.41;100815.13;5068048;28;45454;-64
2022/01/05 04:56:42;;;;;;;;;1.00;0.25;;;;;5.30;63.35;100809.13;5072102;28;45558;-64
2022/01/05 04:59:08;;;;;;;;;1.00;0.75;;;;;5.31;63.92;100815.19;5071643;28;45569;-64
2022/01/05 05:01:33;;;;;;;;;3.25;1.00;;;;;5.30;62.65;100803.91;5068653;28;45740;-64
2022/01/05 05:03:59;;;;;;;;;3.00;1.00;;;;;5.28;63.12;100810.91;5072890;28;45436;-64
2022/01/05 05:06:24;;;;;;;;;4.50;1.00;;;;;5.28;63.66;100813.53;5071479;28;46006;-64
2022/01/05 05:08:50;;;;;;;;;3.75;1.00;;;;;5.27;64.14;100817.06;5071879;28;45444;-64
2022/01/05 05:11:16;;;;;;;;;1.75;1.00;;;;;5.24;63.89;100825.00;5070163;28;45676;-64
2022/01/05 05:13:42;;;;;;;;;2.00;1.00;;;;;5.24;63.81;100835.47;5069180;28;45376;-64
2022/01/05 05:16:07;;;;;;;;;1.75;1.00;;;;;5.23;63.83;100831.16;5069295;28;46030;-64
2022/01/05 05:18:33;;;;;;;;;1.75;1.00;;;;;5.22;63.75;100845.13;5067189;28;45476;-64
2022/01/05 05:20:58;;;;;;;;;1.50;1.00;;;;;5.21;64.13;100850.38;5070210;28;45368;-64
2022/01/05 05:23:24;;;;;;;;;4.25;1.00;;;;;5.20;64.16;100849.50;5070152;28;45470;-64
2022/01/05 05:25:49;;;;;;;;;2.00;2.00;;;;;5.21;64.16;100856.47;5070307;28;46250;-64
2022/01/05 05:28:15;;;;;;;;;2.00;1.00;;;;;5.22;64.48;100863.41;5073198;28;45419;-64
2022/01/05 05:30:40;;;;;;;;;2.00;1.00;;;;;5.23;63.92;100865.09;5070834;28;45420;-64
2022/01/05 05:33:06;;;;;;;;;1.00;1.00;;;;;5.19;63.52;100863.47;5072063;28;45308;-64
2022/01/05 05:35:32;;;;;;;;;1.00;1.00;;;;;5.18;64.80;100874.84;5069548;28;45362;-64
2022/01/05 05:37:57;;;;;;;;;3.25;1.00;;;;;5.17;63.93;100875.75;5067918;28;45537;-64
2022/01/05 05:40:24;;;;;;;;;1.00;1.00;;;;;5.15;63.88;100877.56;5069112;28;45394;-64
2022/01/05 05:42:50;;;;;;;;;4.00;2.00;;;;;5.14;64.45;100883.69;5066708;28;45559;-64
2022/01/05 05:45:16;;;;;;;;;6.00;2.00;;;;;5.14;64.29;100888.91;5069440;28;46916;-64
2022/01/05 05:47:42;;;;;;;;;8.00;4.00;;;;;5.13;64.57;100884.56;5069496;28;45502;-62
2022/01/05 05:50:08;;;;;;;;;4.50;4.50;;;;;5.16;64.67;100891.47;5069891;28;45466;-63
2022/01/05 05:52:34;;;;;;;;;1.25;0.75;;;;;5.15;64.37;100879.31;5066447;28;45417;-63
2022/01/05 05:55:00;;;;;;;;;6.25;1.25;;;;;5.14;64.66;100885.47;5068833;28;45605;-64
2022/01/05 05:57:25;;;;;;;;;0.25;0.00;;;;;5.12;64.32;100882.03;5072154;27;45386;-63
2022/01/05 05:59:51;;;;;;;;;1.50;0.00;;;;;5.11;64.74;100878.56;5069534;28;45617;-64
2022/01/05 06:02:16;;;;;;;;;2.75;1.50;;;;;5.10;64.20;100883.84;5071805;28;45382;-63
2022/01/05 06:04:42;;;;;;;;;4.75;4.00;;;;;5.08;64.12;100889.13;5071144;28;45749;-63
2022/01/05 06:07:07;;;;;;;;;5.00;1.00;;;;;5.07;64.49;100886.56;5072392;28;45501;-64
2022/01/05 06:09:33;;;;;;;;;1.00;0.00;;;;;5.07;64.51;100892.66;5069924;28;45410;-64
2022/01/05 06:11:58;;;;;;;;;2.50;1.00;;;;;5.09;65.03;100895.19;5068725;28;45453;-63
2022/01/05 06:14:24;;;;;;;;;2.75;1.00;;;;;5.09;64.54;100898.66;5068745;28;45761;-64
2022/01/05 06:16:49;;;;;;;;;1.00;1.00;;;;;5.11;65.17;100907.28;5065547;28;45436;-63
2022/01/05 06:19:15;;;;;;;;;5.25;1.00;;;;;5.13;65.38;100913.28;5068936;28;45481;-63
2022/01/05 06:21:40;;;;;;;;;4.25;1.50;;;;;5.13;64.78;100915.06;5068717;28;45427;-63
2022/01/05 06:24:06;;;;;;;;;1.50;1.00;;;;;5.13;64.58;100918.53;5068230;28;45838;-63
2022/01/05 06:26:32;;;;;;;;;1.50;1.00;;;;;5.12;64.77;100914.22;5071586;28;45498;-63
2022/01/05 06:28:57;;;;;;;;;1.00;0.00;;;;;5.13;65.15;100912.44;5070422;28;45619;-63
2022/01/05 06:31:23;;;;;;;;;3.50;1.00;;;;;5.10;65.22;100913.41;5070530;28;45299;-63
2022/01/05 06:33:48;;;;;;;;;5.75;1.00;;;;;5.10;64.29;100918.63;5069110;28;45772;-64
2022/01/05 06:36:14;;;;;;;;;5.00;1.00;;;;;5.11;64.88;100925.56;5066491;28;45375;-63
2022/01/05 06:38:39;;;;;;;;;1.50;1.00;;;;;5.15;64.70;100927.19;5068117;28;45616;-64
2022/01/05 06:41:05;;;;;;;;;1.75;1.00;;;;;5.18;65.00;100927.06;5066180;28;45468;-63
2022/01/05 06:43:31;;;;;;;;;2.25;0.00;;;;;5.20;64.24;100933.06;5067879;28;45425;-63
2022/01/05 06:45:58;;;;;;;;;2.25;1.00;;;;;5.19;65.28;100934.00;5069150;28;45468;-63
2022/01/05 06:48:23;;;;;;;;;0.50;0.00;;;;;5.19;64.05;100935.75;5068909;28;45496;-63
2022/01/05 06:50:49;;;;;;;;;6.00;3.00;;;;;5.17;64.89;100937.56;5071414;28;45513;-63
2022/01/05 06:53:15;;;;;;;;;2.00;0.50;;;;;5.16;65.15;100943.69;5069445;28;46034;-63
2022/01/05 06:55:40;;;;;;;;;1.75;1.75;;;;;5.13;65.04;100942.03;5069726;28;45529;-64
2022/01/05 06:58:06;;;;;;;;;1.50;0.50;;;;;5.12;65.38;100945.53;5068373;28;45519;-64
2022/01/05 07:00:32;;;;;;;;;4.75;0.75;;;;;5.09;65.11;100942.19;5070467;28;45548;-64
2022/01/05 07:02:58;;;;;;;;;4.75;2.00;;;;;5.08;65.24;100945.72;5069077;28;45569;-63
2022/01/05 07:05:24;;;;;;;;;2.75;1.00;;;;;5.08;65.50;100949.19;5072133;28;45524;-64
2022/01/05 07:07:50;;;;;;;;;4.75;2.00;;;;;5.05;64.76;100949.25;5069719;28;45500;-64
2022/01/05 07:10:15;;;;;;;;;5.00;2.25;;;;;5.02;64.75;100944.16;5067742;28;45374;-64
2022/01/05 07:12:41;;;;;;;;;4.00;0.50;;;;;5.02;64.65;100957.19;5068035;28;45943;-63
2022/01/05 07:15:08;;;;;;;;;1.00;1.00;;;;;5.00;64.88;100962.47;5065962;28;45414;-63
2022/01/05 07:17:34;;;;;;;;;1.25;1.00;;;;;5.00;65.26;100969.47;5066857;28;45429;-64
2022/01/05 07:19:59;;;;;;;;;1.50;1.00;;;;;4.97;66.01;100967.78;5067140;28;45475;-63
2022/01/05 07:22:25;;;;;;;;;1.00;1.00;;;;;4.97;65.35;100969.53;5067312;28;45441;-64
2022/01/05 07:24:52;;;;;;;;;2.00;1.00;;;;;4.94;65.30;100980.09;5069995;28;45476;-64
2022/01/05 07:27:17;;;;;;;;;4.00;1.00;;;;;4.93;65.86;100981.00;5068782;28;45519;-64
2022/01/05 07:29:43;;;;;;;;;1.50;0.25;;;;;4.92;66.04;100985.38;5070678;28;45494;-64
2022/01/05 07:32:09;;;;;;;;;5.25;1.25;;;;;4.94;65.61;100987.91;5068809;28;45897;-65
2022/01/05 07:34:34;;;;;;;;;5.00;2.00;;;;;4.97;65.64;100996.50;5067674;28;46365;-65
2022/01/05 07:37:00;;;;;;;;;1.25;1.25;;;;;4.97;65.41;100995.66;5069783;28;45382;-65
2022/01/05 07:39:25;;;;;;;;;2.50;0.00;;;;;4.97;66.33;101000.88;5069067;28;45552;-65
2022/01/05 07:41:51;;;;;;;;;0.00;0.00;;;;;4.96;66.03;101004.38;5069961;28;45573;-65
2022/01/05 07:44:16;;;;;;;;;1.25;0.50;;;;;4.97;66.30;101000.88;5071744;27;45382;-65
2022/01/05 07:46:42;;;;;;;;;4.00;1.00;;;;;5.01;66.27;100997.28;5071590;28;45439;-65
2022/01/05 07:49:07;;;;;;;;;1.75;1.00;;;;;5.03;65.72;101004.13;5071721;27;45449;-64
2022/01/05 07:51:33;;;;;;;;;2.00;1.00;;;;;5.09;65.40;101010.06;5066582;27;45417;-65
2022/01/05 07:54:00;;;;;;;;;1.75;1.75;;;;;5.12;65.73;101009.97;5075521;28;45328;-64
2022/01/05 07:56:26;;;;;;;;;4.25;0.50;;;;;5.15;65.70;101009.88;5077695;28;45442;-64
2022/01/05 07:58:52;;;;;;;;;3.50;1.00;;;;;5.13;65.78;101016.91;5073825;28;45631;-64
2022/01/05 08:01:18;;;;;;;;;4.75;2.00;;;;;5.12;65.58;101021.25;5074161;28;45904;-64
2022/01/05 08:03:46;;;;;;;;;1.75;1.00;;;;;5.11;66.14;101029.16;5071070;27;45447;-64
2022/01/05 08:06:11;;;;;;;;;4.00;1.00;;;;;5.10;66.65;101028.31;5071754;27;45259;-64
2022/01/05 08:08:37;;;;;;;;;4.00;1.00;;;;;5.10;65.49;101030.91;5075790;28;45322;-64
2022/01/05 08:11:02;;;;;;;;;1.50;1.00;;;;;5.10;65.94;101036.13;5071758;27;45576;-64
2022/01/05 08:13:28;;;;;;;;;3.75;0.50;;;;;5.12;65.69;101042.16;5071210;28;45582;-64
2022/01/05 08:15:54;;;;;;;;;2.00;1.00;;;;;5.15;65.87;101046.44;5076433;28;45357;-64
2022/01/05 08:18:20;;;;;;;;;5.00;5.00;;;;;5.13;66.44;101046.47;5070678;28;45631;-64
2022/01/05 08:20:46;;;;;;;;;4.25;1.00;;;;;5.14;66.28;101044.75;5073337;28;45258;-64
2022/01/05 08:23:20;;;;;;;;;1.25;1.00;;;;;5.15;65.94;101049.06;5071118;28;45245;-64
2022/01/05 08:25:46;;;;;;;;;2.00;1.00;;;;;5.16;66.26;101051.63;5076917;27;45413;-64
2022/01/05 08:28:12;;;;;;;;;1.00;1.00;;;;;5.15;66.15;101056.88;5076153;28;45517;-64
2022/01/05 08:30:39;;;;;;;;;3.75;0.00;;;;;5.15;66.13;101065.56;5072222;28;45533;-64
2022/01/05 08:33:05;;;;;;;;;4.00;0.50;;;;;5.17;65.59;101060.28;5068924;28;45441;-64
2022/01/05 08:35:31;;;;;;;;;2.00;1.00;;;;;5.21;65.72;101054.94;5065608;27;45413;-64
2022/01/05 08:37:57;;;;;;;;;0.75;0.75;;;;;5.25;65.84;101069.59;5070037;28;45523;-67
2022/01/05 08:40:25;;;;;;;;;1.25;1.25;;;;;5.25;66.08;101074.81;5073543;27;45926;-68
2022/01/05 08:42:52;;;;;;;;;4.50;1.00;;;;;5.28;66.38;101071.25;5070764;28;45468;-67
2022/01/05 08:45:20;;;;;;;;;1.25;1.25;;;;;5.31;65.86;101066.78;5073346;28;45197;-66
2022/01/05 08:47:48;;;;;;;;;1.50;1.50;;;;;5.33;65.65;101066.75;5071873;28;45445;-65
2022/01/05 08:50:16;;;;;;;;;5.00;1.00;;;;;5.33;65.49;101064.13;5073360;28;45337;-64
2022/01/05 08:52:41;;;;;;;;;1.00;1.00;;;;;5.35;65.93;101070.16;5071014;28;45389;-67
2022/01/05 08:55:07;;;;;;;;;2.25;1.00;;;;;5.39;65.10;101071.78;5070676;27;46317;-68
2022/01/05 08:57:33;;;;;;;;;3.25;1.00;;;;;5.42;65.71;101081.25;5072385;28;45643;-72
2022/01/05 08:59:58;;;;;;;;;4.75;1.00;;;;;5.41;65.37;101071.72;5067591;28;45647;-62
2022/01/05 09:02:24;;;;;;;;;0.50;0.25;;;;;5.41;65.65;101080.41;5073219;27;45464;-68
2022/01/05 09:04:51;;;;;;;;;2.25;1.00;;;;;5.39;66.15;101076.16;5069572;28;45467;-63
2022/01/05 09:07:19;;;;;;;;;4.00;1.75;;;;;5.40;65.30;101080.47;5072044;28;45445;-64
2022/01/05 09:09:45;;;;;;;;;5.00;1.25;;;;;5.41;65.93;101084.78;5072956;28;45938;-63
2022/01/05 09:12:11;;;;;;;;;0.00;0.00;;;;;5.45;65.34;101089.88;5074006;28;45425;-63
2022/01/05 09:14:39;;;;;;;;;2.00;1.00;;;;;5.49;65.96;101096.69;5071115;28;45329;-62
2022/01/05 09:17:06;;;;;;;;;4.50;1.25;;;;;5.50;65.34;101100.16;5071437;28;45616;-63
2022/01/05 09:19:33;;;;;;;;;2.75;1.00;;;;;5.49;65.70;101101.91;5077100;28;45439;-60
2022/01/05 09:21:58;;;;;;;;;2.25;1.00;;;;;5.52;65.46;101096.56;5066884;28;45382;-62
2022/01/05 09:24:25;;;;;;;;;4.50;2.00;;;;;5.52;65.48;101088.72;5068969;28;45444;-62
2022/01/05 09:26:51;;;;;;;;;3.25;2.75;;;;;5.53;65.81;101095.69;5065496;27;45251;-62
2022/01/05 09:29:18;;;;;;;;;5.00;1.50;;;;;5.56;65.12;101097.34;5064005;27;45394;-67
2022/01/05 09:31:44;;;;;;;;;4.50;2.00;;;;;5.59;65.07;101103.31;5016224;27;1341980;-73
2022/01/05 09:34:09;;;;;;;;;4.25;1.00;;;;;5.66;65.24;101105.72;5068364;27;45412;-73
2022/01/05 09:36:41;;;;;;;;;5.25;1.75;;;;;5.70;65.06;101115.19;5071691;27;45586;-71
2022/01/05 09:41:57;;;;;;;;;7.50;3.25;;;;;5.82;65.95;101131.31;5072598;28;45353;-72
2022/01/05 09:44:30;;;;;;;;;6.50;1.25;;;;;5.87;64.85;101132.00;5072490;28;45264;-71
2022/01/05 09:47:10;;;;;;;;;3.25;1.50;;;;;5.92;64.77;101138.88;5072830;27;45651;-70
2022/01/05 09:49:38;;;;;;;;;2.75;1.25;;;;;5.94;65.20;101143.16;5065263;28;45445;-70
2022/01/05 09:52:10;;;;;;;;;5.50;3.25;;;;;6.00;64.67;101155.16;5071477;28;45276;-72
2022/01/05 09:54:42;;;;;;;;;7.50;1.00;;;;;6.02;64.52;101166.44;5071975;28;45404;-71
2022/01/05 09:57:08;;;;;;;;;1.75;1.00;;;;;6.03;64.42;101165.53;5070577;28;45380;-72
2022/01/05 09:59:35;;;;;;;;;1.00;1.00;;;;;6.04;64.93;101164.63;5073385;28;45567;-70
2022/01/05 10:02:02;;;;;;;;;2.00;1.00;;;;;6.06;64.77;101176.72;5070826;28;45504;-70
2022/01/05 10:04:28;;;;;;;;;1.25;1.25;;;;;6.08;64.72;101168.81;5072103;28;45484;-70
2022/01/05 10:06:54;;;;;;;;;2.00;0.50;;;;;6.09;64.71;101166.19;5073159;28;45255;-70
2022/01/05 10:09:19;;;;;;;;;1.50;1.50;;;;;6.13;64.79;101164.31;5072073;28;46370;-72
2022/01/05 10:11:45;;;;;;;;;2.00;2.00;;;;;6.18;65.25;101167.63;5070577;28;45334;-70
2022/01/05 10:14:12;;;;;;;;;4.25;1.50;;;;;6.26;64.44;101170.84;5070500;27;45477;-71
2022/01/05 10:16:39;;;;;;;;;5.50;1.75;;;;;6.38;64.93;101178.25;5067199;28;45392;-71
2022/01/05 10:19:06;;;;;;;;;5.25;1.00;;;;;6.49;64.76;101183.13;5075738;27;45477;-70
2022/01/05 10:21:36;;;;;;;;;2.00;2.00;;;;;6.51;64.28;101185.69;5070082;28;45420;-71
2022/01/05 10:24:03;;;;;;;;;6.25;2.00;;;;;6.48;64.30;101191.00;5070132;28;45481;-71
2022/01/05 10:26:40;;;;;;;;;0.75;0.50;;;;;6.51;64.51;101188.28;5070575;27;45505;-72
2022/01/05 10:29:06;;;;;;;;;1.25;1.00;;;;;6.56;64.52;101192.47;5070905;28;45563;-70
2022/01/05 10:31:41;;;;;;;;;2.50;2.00;;;;;6.58;64.58;101181.94;5071755;28;45356;-72
2022/01/05 10:34:21;;;;;;;;;5.00;2.00;;;;;6.65;64.13;101183.44;5071348;27;45359;-72
2022/01/05 10:36:49;;;;;;;;;3.00;1.00;;;;;6.69;64.40;101183.25;5070063;27;45318;-71
2022/01/05 10:39:20;;;;;;;;;4.00;2.00;;;;;6.74;63.70;101195.31;5070679;27;45386;-71
2022/01/05 10:41:46;;;;;;;;;2.75;1.50;;;;;6.74;63.67;101201.41;5070661;27;45290;-71
2022/01/05 10:44:24;;;;;;;;;4.50;1.00;;;;;6.80;63.71;101209.06;5073158;28;45520;-72
2022/01/05 10:46:51;;;;;;;;;8.50;2.00;;;;;6.87;63.80;101197.47;5076412;28;45501;-70
2022/01/05 10:49:28;;;;;;;;;1.50;1.50;;;;;6.90;63.28;101193.88;5074119;27;45559;-71
2022/01/05 10:51:54;;;;;;;;;2.75;1.00;;;;;6.89;63.59;101200.00;5082785;27;45413;-72
2022/01/05 10:54:23;;;;;;;;;1.75;1.75;;;;;6.87;63.40;101194.84;5072352;27;45255;-72
2022/01/05 10:56:49;;;;;;;;;3.50;1.00;;;;;6.88;63.05;101201.78;5071315;28;45445;-71
2022/01/05 10:59:21;;;;;;;;;4.75;2.00;;;;;6.87;62.89;101204.44;5069804;27;46115;-71
2022/01/05 11:01:48;;;;;;;;;2.75;2.00;;;;;6.87;63.34;101207.03;5069896;28;45465;-74
2022/01/05 11:04:23;;;;;;;;;4.50;2.00;;;;;6.89;62.86;101200.88;5076174;27;45373;-71
2022/01/05 11:07:03;;;;;;;;;2.25;2.00;;;;;6.90;62.95;101201.72;5077468;28;46564;-73
2022/01/05 11:09:30;;;;;;;;;7.00;2.75;;;;;6.94;62.79;101205.91;5080249;27;45278;-74
2022/01/05 11:11:57;;;;;;;;;5.50;2.25;;;;;6.97;62.67;101209.28;5073808;27;45297;-74
2022/01/05 11:14:32;;;;;;;;;6.00;2.75;;;;;7.00;63.10;101206.56;5081046;28;45354;-72
2022/01/05 11:17:00;;;;;;;;;3.50;1.00;;;;;7.02;62.81;101200.41;5079183;28;45569;-73
2022/01/05 11:19:38;;;;;;;;;6.50;1.50;;;;;7.02;63.22;101203.88;5063414;28;45401;-74
2022/01/05 11:22:14;;;;;;;;;2.75;1.00;;;;;7.04;62.69;101209.06;5067173;28;45398;-70
2022/01/05 11:24:44;;;;;;;;;5.25;3.00;;;;;7.07;62.85;101201.94;5062321;28;45326;-72
2022/01/05 11:27:16;;;;;;;;;7.50;2.25;;;;;7.16;62.63;101205.97;5060783;28;45390;-69
2022/01/05 11:29:43;;;;;;;;;3.00;1.25;;;;;7.19;62.49;101213.75;5060386;28;45453;-72
2022/01/05 11:32:11;;;;;;;;;2.00;2.00;;;;;7.19;62.35;101204.13;5060021;28;45410;-66
2022/01/05 11:34:37;;;;;;;;;8.25;2.75;;;;;7.20;61.99;101207.59;5077386;27;45402;-76